Observations for NORWICH WEA CNTRE, United Kingdom (EGSH)

EGSH 231050Z 23006KT 190V250 9999 BKN037 13/11 Q1017 BECMG BKN012   
EGSH 231020Z 23008KT 9999 SCT037 13/10 Q1017 BECMG BKN012   
EGSH 230950Z 23009KT 9999 SCT037 12/10 Q1017 BECMG BKN013   
EGSH 230920Z 23010KT 9999 FEW020 SCT041 12/10 Q1017 NOSIG   
EGSH 230850Z 24010KT 9999 SCT048 12/10 Q1017 NOSIG  
EGSH 230820Z 24010KT 9999 BKN040 10/09 Q1017 NOSIG  
EGSH 230750Z 24007KT 9999 BKN040 10/08 Q1017 NOSIG  
EGSH 230720Z 24008KT 9999 BKN040 10/08 Q1017 NOSIG  
EGSH 230650Z 25006KT 9999 SCT045 09/08 Q1017 NOSIG  
EGSH 230620Z 24008KT CAVOK 08/07 Q1017 NOSIG
EGSH 230550Z 24008KT CAVOK 08/07 Q1016 NOSIG
EGSH 230520Z 24009KT CAVOK 08/07 Q1016 NOSIG
EGSH 230450Z 25009KT CAVOK 09/08 Q1016 NOSIG
EGSH 230420Z AUTO 25007KT 9999 FEW049/// 08/07 Q1016
EGSH 230350Z AUTO 25008KT 9999 FEW037/// 08/07 Q1016
EGSH 230320Z AUTO 26009KT 9999 BKN037/// OVC045/// 10/08 Q1016  
EGSH 230250Z AUTO 26011KT 9999 BKN043/// 09/08 Q1016
EGSH 230220Z AUTO 25009KT 9999 BKN045/// 09/08 Q1016
EGSH 230150Z AUTO 25010KT 9999 BKN044/// 08/07 Q1016
EGSH 230120Z AUTO 25010KT 9999 NCD 08/07 Q1016  
EGSH 230050Z AUTO 25010KT 9999 NCD 08/06 Q1016  
EGSH 230020Z AUTO 25011KT 9999 NCD 08/06 Q1016  
EGSH 222350Z AUTO 25012KT 9999 NCD 08/06 Q1015  
EGSH 222320Z AUTO 25012KT 9999 NCD 08/06 Q1015  
EGSH 222250Z AUTO 25011KT 9999 NCD 08/06 Q1015  
EGSH 222220Z AUTO 25011KT 9999 NCD 08/06 Q1015  
EGSH 222150Z 26010KT CAVOK 08/06 Q1015 NOSIG
EGSH 222120Z 26011KT CAVOK 09/06 Q1015 NOSIG
EGSH 222050Z 26011KT CAVOK 09/05 Q1015 NOSIG
EGSH 222020Z 26012KT CAVOK 09/06 Q1014 NOSIG
EGSH 221950Z 26011KT CAVOK 09/06 Q1014 NOSIG
EGSH 221920Z 27013KT CAVOK 10/06 Q1013 NOSIG
EGSH 221850Z 27013KT CAVOK 10/06 Q1013 NOSIG
EGSH 221820Z 27014KT 230V290 CAVOK 10/06 Q1013 NOSIG
EGSH 221820Z 27014KT 9999 SCT035 10/06 Q1013 NOSIG
EGSH 221750Z 27015KT 230V300 9999 SCT035 11/06 Q1012 NOSIG  
EGSH 221720Z 27015KT 9999 FEW028 SCT032 11/06 Q1012 NOSIG   
EGSH 221650Z 28016KT 9999 FEW031 BKN045 11/06 Q1012 NOSIG   
EGSH 221620Z 27015KT 9999 FEW031 BKN045 11/07 Q1011 NOSIG   
EGSH 221550Z 27015KT 9999 FEW026 BKN033 11/07 Q1011 NOSIG   
EGSH 221520Z 27018KT 9999 BKN033 11/07 Q1010 NOSIG  
EGSH 221450Z 27017KT 9999 BKN035 11/07 Q1010 NOSIG  
EGSH 221420Z 26018KT 220V300 9999 BKN035 11/08 Q1010 NOSIG  
EGSH 221350Z 26017KT 9999 SCT020 BKN045 11/07 Q1010 NOSIG   
EGSH 221320Z 26017KT 9999 SCT020 BKN045 11/07 Q1009 NOSIG   
EGSH 221250Z 26019KT 7000 -RA FEW005 SCT022 BKN045 10/08 Q1009 NOSIG
EGSH 221220Z 26019G29KT 9999 -SHRA FEW007 SCT039 10/08 Q1009 NOSIG  
EGSH 221150Z 26019KT 9999 -SHRA FEW007 SCT015 BKN026 10/08 Q1009 NOSIG  
EGSH 221120Z 26016KT 230V290 9999 -SHRA FEW007 SCT015 BKN026 10/08 Q1008 TEMPO RA   
EGSH 221050Z 26020KT 230V290 9999 -SHRA FEW007 SCT015 BKN026 10/08 Q1008 TEMPO RA   
EGSH 221020Z 26019KT 9999 -DZ BKN024 11/07 Q1007 TEMPO RA